sensor_id;sensor_type;location;lat;lon;timestamp;P1;durP1;ratioP1;P2;durP2;ratioP2
71174;SDS011;58876;51.994;4.472;2024-02-04T00:01:32;2218.97;;;2218.97;;
71174;SDS011;58876;51.994;4.472;2024-02-04T00:03:57;2931.92;;;2931.92;;
71174;SDS011;58876;51.994;4.472;2024-02-04T00:06:23;3181.40;;;3181.40;;
71174;SDS011;58876;51.994;4.472;2024-02-04T00:08:48;2950.27;;;2950.27;;
71174;SDS011;58876;51.994;4.472;2024-02-04T00:11:14;2589.26;;;2589.26;;
71174;SDS011;58876;51.994;4.472;2024-02-04T00:13:42;2679.63;;;2679.63;;
71174;SDS011;58876;51.994;4.472;2024-02-04T00:16:07;2594.47;;;2594.47;;
71174;SDS011;58876;51.994;4.472;2024-02-04T00:18:33;2617.04;;;2617.04;;
71174;SDS011;58876;51.994;4.472;2024-02-04T00:20:59;2232.97;;;2232.97;;
71174;SDS011;58876;51.994;4.472;2024-02-04T00:23:24;1633.59;;;1633.59;;
71174;SDS011;58876;51.994;4.472;2024-02-04T00:25:50;1452.54;;;1452.54;;
71174;SDS011;58876;51.994;4.472;2024-02-04T00:28:15;1291.09;;;1291.09;;
71174;SDS011;58876;51.994;4.472;2024-02-04T00:30:41;1298.33;;;1298.33;;
71174;SDS011;58876;51.994;4.472;2024-02-04T00:33:06;1446.27;;;1446.27;;
71174;SDS011;58876;51.994;4.472;2024-02-04T00:35:32;1397.63;;;1397.63;;
71174;SDS011;58876;51.994;4.472;2024-02-04T00:37:57;1109.27;;;1109.27;;
71174;SDS011;58876;51.994;4.472;2024-02-04T00:40:23;387.15;;;387.15;;
71174;SDS011;58876;51.994;4.472;2024-02-04T00:42:48;138.71;;;138.71;;
71174;SDS011;58876;51.994;4.472;2024-02-04T00:45:14;157.89;;;157.89;;
71174;SDS011;58876;51.994;4.472;2024-02-04T00:47:39;196.80;;;196.80;;
71174;SDS011;58876;51.994;4.472;2024-02-04T00:50:05;174.88;;;174.88;;
71174;SDS011;58876;51.994;4.472;2024-02-04T00:52:31;120.63;;;120.63;;
71174;SDS011;58876;51.994;4.472;2024-02-04T00:54:57;100.17;;;100.17;;
71174;SDS011;58876;51.994;4.472;2024-02-04T00:57:22;115.04;;;115.04;;
71174;SDS011;58876;51.994;4.472;2024-02-04T00:59:47;118.02;;;118.02;;
71174;SDS011;58876;51.994;4.472;2024-02-04T01:02:13;119.92;;;119.92;;
71174;SDS011;58876;51.994;4.472;2024-02-04T01:04:38;107.09;;;107.09;;
71174;SDS011;58876;51.994;4.472;2024-02-04T01:07:04;192.62;;;192.62;;
71174;SDS011;58876;51.994;4.472;2024-02-04T01:09:29;170.93;;;170.93;;
71174;SDS011;58876;51.994;4.472;2024-02-04T01:11:55;126.60;;;126.60;;
71174;SDS011;58876;51.994;4.472;2024-02-04T01:14:21;63.04;;;63.04;;
71174;SDS011;58876;51.994;4.472;2024-02-04T01:16:46;58.30;;;58.30;;
71174;SDS011;58876;51.994;4.472;2024-02-04T01:19:12;151.39;;;151.39;;
71174;SDS011;58876;51.994;4.472;2024-02-04T01:21:37;249.46;;;249.46;;
71174;SDS011;58876;51.994;4.472;2024-02-04T01:24:03;349.77;;;349.77;;
71174;SDS011;58876;51.994;4.472;2024-02-04T01:26:28;512.22;;;512.22;;
71174;SDS011;58876;51.994;4.472;2024-02-04T01:28:54;746.25;;;746.25;;
71174;SDS011;58876;51.994;4.472;2024-02-04T01:31:19;707.95;;;707.95;;
71174;SDS011;58876;51.994;4.472;2024-02-04T01:33:48;378.57;;;378.57;;
71174;SDS011;58876;51.994;4.472;2024-02-04T01:36:13;63.27;;;63.27;;
71174;SDS011;58876;51.994;4.472;2024-02-04T01:38:38;32.81;;;32.81;;
71174;SDS011;58876;51.994;4.472;2024-02-04T01:41:04;35.44;;;35.44;;
71174;SDS011;58876;51.994;4.472;2024-02-04T01:43:29;58.77;;;58.77;;
71174;SDS011;58876;51.994;4.472;2024-02-04T01:45:56;23.35;;;23.35;;
71174;SDS011;58876;51.994;4.472;2024-02-04T01:48:22;18.43;;;18.43;;
71174;SDS011;58876;51.994;4.472;2024-02-04T01:50:49;16.77;;;16.77;;
71174;SDS011;58876;51.994;4.472;2024-02-04T01:53:19;15.71;;;15.71;;
71174;SDS011;58876;51.994;4.472;2024-02-04T01:55:48;15.67;;;15.67;;
71174;SDS011;58876;51.994;4.472;2024-02-04T01:58:17;25.35;;;25.35;;
71174;SDS011;58876;51.994;4.472;2024-02-04T02:00:42;43.97;;;43.97;;
71174;SDS011;58876;51.994;4.472;2024-02-04T02:03:08;40.89;;;40.89;;
71174;SDS011;58876;51.994;4.472;2024-02-04T02:05:37;58.37;;;58.37;;
71174;SDS011;58876;51.994;4.472;2024-02-04T02:08:05;46.77;;;46.77;;
71174;SDS011;58876;51.994;4.472;2024-02-04T02:10:31;57.20;;;57.20;;
71174;SDS011;58876;51.994;4.472;2024-02-04T02:12:59;55.72;;;55.72;;
71174;SDS011;58876;51.994;4.472;2024-02-04T02:15:29;56.84;;;56.84;;
71174;SDS011;58876;51.994;4.472;2024-02-04T02:18:04;75.27;;;75.27;;
71174;SDS011;58876;51.994;4.472;2024-02-04T02:20:41;50.67;;;50.67;;
71174;SDS011;58876;51.994;4.472;2024-02-04T02:23:40;79.55;;;79.55;;
71174;SDS011;58876;51.994;4.472;2024-02-04T02:26:30;129.89;;;129.89;;
71174;SDS011;58876;51.994;4.472;2024-02-04T02:28:57;234.14;;;234.14;;
71174;SDS011;58876;51.994;4.472;2024-02-04T02:31:22;507.61;;;507.61;;
71174;SDS011;58876;51.994;4.472;2024-02-04T02:33:48;924.34;;;924.34;;
71174;SDS011;58876;51.994;4.472;2024-02-04T02:36:14;1407.88;;;1407.88;;
71174;SDS011;58876;51.994;4.472;2024-02-04T02:38:50;1513.84;;;1513.84;;
71174;SDS011;58876;51.994;4.472;2024-02-04T02:41:26;224.21;;;224.21;;
71174;SDS011;58876;51.994;4.472;2024-02-04T02:43:55;31.79;;;31.79;;
71174;SDS011;58876;51.994;4.472;2024-02-04T02:46:22;54.19;;;54.19;;
71174;SDS011;58876;51.994;4.472;2024-02-04T02:48:49;48.84;;;48.84;;
71174;SDS011;58876;51.994;4.472;2024-02-04T02:51:15;60.44;;;60.44;;
71174;SDS011;58876;51.994;4.472;2024-02-04T02:53:41;85.83;;;85.83;;
71174;SDS011;58876;51.994;4.472;2024-02-04T02:56:06;112.94;;;112.94;;
71174;SDS011;58876;51.994;4.472;2024-02-04T02:58:32;108.93;;;108.93;;
71174;SDS011;58876;51.994;4.472;2024-02-04T03:00:57;140.06;;;140.06;;
71174;SDS011;58876;51.994;4.472;2024-02-04T03:03:23;40.60;;;40.60;;
71174;SDS011;58876;51.994;4.472;2024-02-04T03:05:48;65.86;;;65.86;;
71174;SDS011;58876;51.994;4.472;2024-02-04T03:08:14;101.20;;;101.20;;
71174;SDS011;58876;51.994;4.472;2024-02-04T03:10:39;85.69;;;85.69;;
71174;SDS011;58876;51.994;4.472;2024-02-04T03:13:05;80.38;;;80.38;;
71174;SDS011;58876;51.994;4.472;2024-02-04T03:15:30;34.22;;;34.22;;
71174;SDS011;58876;51.994;4.472;2024-02-04T03:17:56;66.40;;;66.40;;
71174;SDS011;58876;51.994;4.472;2024-02-04T03:20:22;86.47;;;86.47;;
71174;SDS011;58876;51.994;4.472;2024-02-04T03:22:48;37.56;;;37.56;;
71174;SDS011;58876;51.994;4.472;2024-02-04T03:25:13;107.88;;;107.88;;
71174;SDS011;58876;51.994;4.472;2024-02-04T03:27:39;134.18;;;134.18;;
71174;SDS011;58876;51.994;4.472;2024-02-04T03:30:05;255.56;;;255.56;;
71174;SDS011;58876;51.994;4.472;2024-02-04T03:32:31;312.85;;;312.85;;
71174;SDS011;58876;51.994;4.472;2024-02-04T03:35:01;334.43;;;334.43;;
71174;SDS011;58876;51.994;4.472;2024-02-04T03:37:27;834.88;;;834.88;;
71174;SDS011;58876;51.994;4.472;2024-02-04T03:39:53;1322.64;;;1322.64;;
71174;SDS011;58876;51.994;4.472;2024-02-04T03:42:18;1998.25;;;1998.25;;
71174;SDS011;58876;51.994;4.472;2024-02-04T03:44:46;2549.43;;;2549.43;;
71174;SDS011;58876;51.994;4.472;2024-02-04T03:47:12;2862.64;;;2862.64;;
71174;SDS011;58876;51.994;4.472;2024-02-04T03:49:37;3085.33;;;3085.33;;
71174;SDS011;58876;51.994;4.472;2024-02-04T03:52:03;3495.74;;;3495.74;;
71174;SDS011;58876;51.994;4.472;2024-02-04T03:54:28;3464.76;;;3464.76;;
71174;SDS011;58876;51.994;4.472;2024-02-04T03:56:54;2550.74;;;2550.74;;
71174;SDS011;58876;51.994;4.472;2024-02-04T03:59:19;2695.30;;;2695.30;;
71174;SDS011;58876;51.994;4.472;2024-02-04T04:01:48;3219.04;;;3219.04;;
71174;SDS011;58876;51.994;4.472;2024-02-04T04:04:17;3296.59;;;3296.59;;
71174;SDS011;58876;51.994;4.472;2024-02-04T04:06:42;3484.24;;;3484.24;;
71174;SDS011;58876;51.994;4.472;2024-02-04T04:09:08;3080.03;;;3080.03;;
71174;SDS011;58876;51.994;4.472;2024-02-04T04:11:34;2686.56;;;2686.56;;
71174;SDS011;58876;51.994;4.472;2024-02-04T04:14:00;1905.57;;;1905.57;;
71174;SDS011;58876;51.994;4.472;2024-02-04T04:16:25;1377.46;;;1377.46;;
71174;SDS011;58876;51.994;4.472;2024-02-04T04:18:50;1225.03;;;1225.03;;
71174;SDS011;58876;51.994;4.472;2024-02-04T04:21:16;1122.55;;;1122.55;;
71174;SDS011;58876;51.994;4.472;2024-02-04T04:23:42;1543.54;;;1543.54;;
71174;SDS011;58876;51.994;4.472;2024-02-04T04:26:07;1952.36;;;1952.36;;
71174;SDS011;58876;51.994;4.472;2024-02-04T04:28:32;1616.22;;;1616.22;;
71174;SDS011;58876;51.994;4.472;2024-02-04T04:30:58;1958.39;;;1958.39;;
71174;SDS011;58876;51.994;4.472;2024-02-04T04:33:23;2289.20;;;2289.20;;
71174;SDS011;58876;51.994;4.472;2024-02-04T04:35:49;1726.26;;;1726.26;;
71174;SDS011;58876;51.994;4.472;2024-02-04T04:38:14;1775.54;;;1775.54;;
71174;SDS011;58876;51.994;4.472;2024-02-04T04:40:43;2075.50;;;2075.50;;
71174;SDS011;58876;51.994;4.472;2024-02-04T04:43:09;2124.32;;;2124.32;;
71174;SDS011;58876;51.994;4.472;2024-02-04T04:45:34;1944.42;;;1944.42;;
71174;SDS011;58876;51.994;4.472;2024-02-04T04:48:00;1647.71;;;1647.71;;
71174;SDS011;58876;51.994;4.472;2024-02-04T04:50:25;1484.57;;;1484.57;;
71174;SDS011;58876;51.994;4.472;2024-02-04T04:52:51;1438.19;;;1438.19;;
71174;SDS011;58876;51.994;4.472;2024-02-04T04:55:16;1631.34;;;1631.34;;
71174;SDS011;58876;51.994;4.472;2024-02-04T04:57:42;1675.49;;;1675.49;;
71174;SDS011;58876;51.994;4.472;2024-02-04T05:00:07;1626.90;;;1626.90;;
71174;SDS011;58876;51.994;4.472;2024-02-04T05:02:37;1839.51;;;1839.51;;
71174;SDS011;58876;51.994;4.472;2024-02-04T05:05:03;1937.02;;;1937.02;;
71174;SDS011;58876;51.994;4.472;2024-02-04T05:07:28;2266.03;;;2266.03;;
71174;SDS011;58876;51.994;4.472;2024-02-04T05:09:54;2338.70;;;2338.70;;
71174;SDS011;58876;51.994;4.472;2024-02-04T05:12:19;2248.18;;;2248.18;;
71174;SDS011;58876;51.994;4.472;2024-02-04T05:14:48;2176.43;;;2176.43;;
71174;SDS011;58876;51.994;4.472;2024-02-04T05:17:14;2122.44;;;2122.44;;
71174;SDS011;58876;51.994;4.472;2024-02-04T05:19:43;1974.00;;;1974.00;;
71174;SDS011;58876;51.994;4.472;2024-02-04T05:22:09;1914.91;;;1914.91;;
71174;SDS011;58876;51.994;4.472;2024-02-04T05:24:35;1783.77;;;1783.77;;
71174;SDS011;58876;51.994;4.472;2024-02-04T05:27:00;1154.58;;;1154.58;;
71174;SDS011;58876;51.994;4.472;2024-02-04T05:29:26;858.06;;;858.06;;
71174;SDS011;58876;51.994;4.472;2024-02-04T05:31:51;951.26;;;951.26;;
71174;SDS011;58876;51.994;4.472;2024-02-04T05:34:16;1096.07;;;1096.07;;
71174;SDS011;58876;51.994;4.472;2024-02-04T05:36:42;1141.00;;;1141.00;;
71174;SDS011;58876;51.994;4.472;2024-02-04T05:39:14;1411.95;;;1411.95;;
71174;SDS011;58876;51.994;4.472;2024-02-04T05:41:43;1379.38;;;1379.38;;
71174;SDS011;58876;51.994;4.472;2024-02-04T05:44:09;1527.71;;;1527.71;;
71174;SDS011;58876;51.994;4.472;2024-02-04T05:46:35;1318.26;;;1318.26;;
71174;SDS011;58876;51.994;4.472;2024-02-04T05:49:01;1362.44;;;1362.44;;
71174;SDS011;58876;51.994;4.472;2024-02-04T05:51:27;1393.55;;;1393.55;;
71174;SDS011;58876;51.994;4.472;2024-02-04T05:53:54;1468.32;;;1468.32;;
71174;SDS011;58876;51.994;4.472;2024-02-04T05:56:20;1533.32;;;1533.32;;
71174;SDS011;58876;51.994;4.472;2024-02-04T05:58:46;1619.22;;;1619.22;;
71174;SDS011;58876;51.994;4.472;2024-02-04T06:01:12;1654.64;;;1654.64;;
71174;SDS011;58876;51.994;4.472;2024-02-04T06:03:38;1266.38;;;1266.38;;
71174;SDS011;58876;51.994;4.472;2024-02-04T06:06:03;1124.57;;;1124.57;;
71174;SDS011;58876;51.994;4.472;2024-02-04T06:08:29;2572.74;;;2491.05;;
71174;SDS011;58876;51.994;4.472;2024-02-04T06:10:54;1545.49;;;1545.49;;
71174;SDS011;58876;51.994;4.472;2024-02-04T06:13:20;410.38;;;410.38;;
71174;SDS011;58876;51.994;4.472;2024-02-04T06:15:45;870.64;;;870.64;;
71174;SDS011;58876;51.994;4.472;2024-02-04T06:18:11;1112.69;;;1112.69;;
71174;SDS011;58876;51.994;4.472;2024-02-04T06:20:37;880.40;;;880.40;;
71174;SDS011;58876;51.994;4.472;2024-02-04T06:23:02;825.83;;;825.83;;
71174;SDS011;58876;51.994;4.472;2024-02-04T06:25:28;626.96;;;626.96;;
71174;SDS011;58876;51.994;4.472;2024-02-04T06:27:54;500.60;;;500.60;;
71174;SDS011;58876;51.994;4.472;2024-02-04T06:30:19;458.16;;;458.16;;
71174;SDS011;58876;51.994;4.472;2024-02-04T06:32:50;335.03;;;335.03;;
71174;SDS011;58876;51.994;4.472;2024-02-04T06:35:16;160.80;;;160.80;;
71174;SDS011;58876;51.994;4.472;2024-02-04T06:37:41;163.87;;;163.87;;
71174;SDS011;58876;51.994;4.472;2024-02-04T06:40:10;193.74;;;193.74;;
71174;SDS011;58876;51.994;4.472;2024-02-04T06:42:36;304.32;;;304.32;;
71174;SDS011;58876;51.994;4.472;2024-02-04T06:45:01;281.07;;;281.07;;
71174;SDS011;58876;51.994;4.472;2024-02-04T06:47:27;372.03;;;372.03;;
71174;SDS011;58876;51.994;4.472;2024-02-04T06:49:52;293.07;;;293.07;;
71174;SDS011;58876;51.994;4.472;2024-02-04T06:52:18;506.47;;;506.47;;
71174;SDS011;58876;51.994;4.472;2024-02-04T06:54:43;310.64;;;310.64;;
71174;SDS011;58876;51.994;4.472;2024-02-04T06:57:09;396.05;;;396.05;;
71174;SDS011;58876;51.994;4.472;2024-02-04T06:59:34;713.16;;;713.16;;
71174;SDS011;58876;51.994;4.472;2024-02-04T07:02:00;805.09;;;805.09;;
71174;SDS011;58876;51.994;4.472;2024-02-04T07:04:26;1649.13;;;1649.13;;
71174;SDS011;58876;51.994;4.472;2024-02-04T07:06:51;2254.07;;;2254.07;;
71174;SDS011;58876;51.994;4.472;2024-02-04T07:09:17;2369.86;;;2369.86;;
71174;SDS011;58876;51.994;4.472;2024-02-04T07:11:43;2050.18;;;2050.18;;
71174;SDS011;58876;51.994;4.472;2024-02-04T07:14:08;1089.67;;;1089.67;;
71174;SDS011;58876;51.994;4.472;2024-02-04T07:16:33;1436.32;;;1436.32;;
71174;SDS011;58876;51.994;4.472;2024-02-04T07:18:59;1362.61;;;1362.61;;
71174;SDS011;58876;51.994;4.472;2024-02-04T07:21:25;474.53;;;474.53;;
71174;SDS011;58876;51.994;4.472;2024-02-04T07:23:50;313.79;;;313.79;;
71174;SDS011;58876;51.994;4.472;2024-02-04T07:26:19;241.18;;;241.18;;
71174;SDS011;58876;51.994;4.472;2024-02-04T07:28:44;130.59;;;130.59;;
71174;SDS011;58876;51.994;4.472;2024-02-04T07:31:10;728.82;;;728.82;;
71174;SDS011;58876;51.994;4.472;2024-02-04T07:33:35;767.06;;;767.06;;
71174;SDS011;58876;51.994;4.472;2024-02-04T07:36:01;501.39;;;501.39;;
71174;SDS011;58876;51.994;4.472;2024-02-04T07:38:27;1085.96;;;1085.96;;
71174;SDS011;58876;51.994;4.472;2024-02-04T07:40:52;1184.19;;;1184.19;;
71174;SDS011;58876;51.994;4.472;2024-02-04T07:43:20;1042.53;;;1042.53;;
71174;SDS011;58876;51.994;4.472;2024-02-04T07:45:49;737.18;;;737.18;;
71174;SDS011;58876;51.994;4.472;2024-02-04T07:48:14;403.59;;;403.59;;
71174;SDS011;58876;51.994;4.472;2024-02-04T07:50:40;514.20;;;514.20;;
71174;SDS011;58876;51.994;4.472;2024-02-04T07:53:05;1080.34;;;1080.34;;
71174;SDS011;58876;51.994;4.472;2024-02-04T07:55:31;1990.69;;;1990.69;;
71174;SDS011;58876;51.994;4.472;2024-02-04T07:57:56;2302.81;;;2302.81;;
71174;SDS011;58876;51.994;4.472;2024-02-04T08:00:22;2473.68;;;2473.68;;
71174;SDS011;58876;51.994;4.472;2024-02-04T08:02:47;1983.53;;;1983.53;;
71174;SDS011;58876;51.994;4.472;2024-02-04T08:05:13;1383.61;;;1383.61;;
71174;SDS011;58876;51.994;4.472;2024-02-04T08:07:38;575.53;;;575.53;;
71174;SDS011;58876;51.994;4.472;2024-02-04T08:10:04;286.54;;;286.54;;
71174;SDS011;58876;51.994;4.472;2024-02-04T08:12:30;457.59;;;457.59;;
71174;SDS011;58876;51.994;4.472;2024-02-04T08:14:56;464.67;;;464.67;;
71174;SDS011;58876;51.994;4.472;2024-02-04T08:17:21;1379.32;;;1379.32;;
71174;SDS011;58876;51.994;4.472;2024-02-04T08:19:47;3336.90;;;3195.26;;
71174;SDS011;58876;51.994;4.472;2024-02-04T08:22:12;5462.55;;;4736.50;;
71174;SDS011;58876;51.994;4.472;2024-02-04T08:24:38;6831.53;;;5576.64;;
71174;SDS011;58876;51.994;4.472;2024-02-04T08:27:03;6757.81;;;5500.87;;
71174;SDS011;58876;51.994;4.472;2024-02-04T08:29:29;5452.56;;;4793.33;;
71174;SDS011;58876;51.994;4.472;2024-02-04T08:31:54;3913.39;;;3905.65;;
71174;SDS011;58876;51.994;4.472;2024-02-04T08:34:20;3549.21;;;3549.21;;
71174;SDS011;58876;51.994;4.472;2024-02-04T08:36:49;2865.02;;;2865.02;;
71174;SDS011;58876;51.994;4.472;2024-02-04T08:39:14;2104.55;;;2104.55;;
71174;SDS011;58876;51.994;4.472;2024-02-04T08:41:41;2774.89;;;2768.17;;
71174;SDS011;58876;51.994;4.472;2024-02-04T08:44:06;4105.13;;;3920.85;;
71174;SDS011;58876;51.994;4.472;2024-02-04T08:46:32;3553.27;;;3522.59;;
71174;SDS011;58876;51.994;4.472;2024-02-04T08:48:57;2212.89;;;2212.89;;
71174;SDS011;58876;51.994;4.472;2024-02-04T08:51:23;1194.14;;;1194.14;;
71174;SDS011;58876;51.994;4.472;2024-02-04T08:53:48;1053.50;;;1053.50;;
71174;SDS011;58876;51.994;4.472;2024-02-04T08:56:14;1246.73;;;1246.73;;
71174;SDS011;58876;51.994;4.472;2024-02-04T08:58:39;965.28;;;965.28;;
71174;SDS011;58876;51.994;4.472;2024-02-04T09:01:05;880.30;;;880.30;;
71174;SDS011;58876;51.994;4.472;2024-02-04T09:03:31;1067.38;;;1067.38;;
71174;SDS011;58876;51.994;4.472;2024-02-04T09:05:57;735.99;;;735.99;;
71174;SDS011;58876;51.994;4.472;2024-02-04T09:08:23;570.79;;;570.79;;
71174;SDS011;58876;51.994;4.472;2024-02-04T09:10:49;303.34;;;303.34;;
71174;SDS011;58876;51.994;4.472;2024-02-04T09:13:14;422.00;;;422.00;;
71174;SDS011;58876;51.994;4.472;2024-02-04T09:15:40;325.47;;;325.47;;
71174;SDS011;58876;51.994;4.472;2024-02-04T09:18:05;298.13;;;298.13;;
71174;SDS011;58876;51.994;4.472;2024-02-04T09:20:31;244.22;;;244.22;;
71174;SDS011;58876;51.994;4.472;2024-02-04T09:22:56;283.22;;;283.22;;
71174;SDS011;58876;51.994;4.472;2024-02-04T09:25:21;280.32;;;280.32;;
71174;SDS011;58876;51.994;4.472;2024-02-04T09:27:47;245.19;;;245.19;;
71174;SDS011;58876;51.994;4.472;2024-02-04T09:30:12;350.87;;;350.84;;
71174;SDS011;58876;51.994;4.472;2024-02-04T09:32:38;251.67;;;251.67;;
71174;SDS011;58876;51.994;4.472;2024-02-04T09:35:04;287.20;;;287.20;;
71174;SDS011;58876;51.994;4.472;2024-02-04T09:37:29;659.25;;;659.25;;
71174;SDS011;58876;51.994;4.472;2024-02-04T09:39:55;1287.45;;;1287.45;;
71174;SDS011;58876;51.994;4.472;2024-02-04T09:42:21;1559.52;;;1559.52;;
71174;SDS011;58876;51.994;4.472;2024-02-04T09:44:49;2863.73;;;2863.73;;
71174;SDS011;58876;51.994;4.472;2024-02-04T09:47:18;3514.80;;;3510.22;;
71174;SDS011;58876;51.994;4.472;2024-02-04T09:49:44;3893.57;;;3887.98;;
71174;SDS011;58876;51.994;4.472;2024-02-04T09:52:10;3863.04;;;3863.04;;
71174;SDS011;58876;51.994;4.472;2024-02-04T09:54:45;3621.24;;;3621.24;;
71174;SDS011;58876;51.994;4.472;2024-02-04T09:57:14;3661.35;;;3661.35;;
71174;SDS011;58876;51.994;4.472;2024-02-04T09:59:43;2678.52;;;2678.52;;
71174;SDS011;58876;51.994;4.472;2024-02-04T10:02:09;2112.80;;;2112.80;;
71174;SDS011;58876;51.994;4.472;2024-02-04T10:04:35;2275.50;;;2275.50;;
71174;SDS011;58876;51.994;4.472;2024-02-04T10:07:01;1854.75;;;1854.75;;
71174;SDS011;58876;51.994;4.472;2024-02-04T10:09:27;1228.55;;;1228.55;;
71174;SDS011;58876;51.994;4.472;2024-02-04T10:11:54;977.55;;;977.55;;
71174;SDS011;58876;51.994;4.472;2024-02-04T10:14:26;464.70;;;464.70;;
71174;SDS011;58876;51.994;4.472;2024-02-04T10:16:51;222.17;;;222.17;;
71174;SDS011;58876;51.994;4.472;2024-02-04T10:19:18;289.69;;;289.69;;
71174;SDS011;58876;51.994;4.472;2024-02-04T10:21:43;316.53;;;316.53;;
71174;SDS011;58876;51.994;4.472;2024-02-04T10:24:09;376.99;;;376.99;;
71174;SDS011;58876;51.994;4.472;2024-02-04T10:26:34;158.73;;;158.73;;
71174;SDS011;58876;51.994;4.472;2024-02-04T10:29:02;325.71;;;325.71;;
71174;SDS011;58876;51.994;4.472;2024-02-04T10:31:28;631.41;;;631.41;;
71174;SDS011;58876;51.994;4.472;2024-02-04T10:33:54;1110.21;;;1110.21;;
71174;SDS011;58876;51.994;4.472;2024-02-04T10:36:20;1129.09;;;1129.09;;
71174;SDS011;58876;51.994;4.472;2024-02-04T10:38:48;1570.40;;;1570.40;;
71174;SDS011;58876;51.994;4.472;2024-02-04T10:41:17;1854.36;;;1854.36;;
71174;SDS011;58876;51.994;4.472;2024-02-04T10:43:43;942.15;;;942.15;;
71174;SDS011;58876;51.994;4.472;2024-02-04T10:46:12;580.69;;;580.69;;
71174;SDS011;58876;51.994;4.472;2024-02-04T10:48:44;94.70;;;94.70;;
71174;SDS011;58876;51.994;4.472;2024-02-04T10:51:25;106.58;;;106.58;;
71174;SDS011;58876;51.994;4.472;2024-02-04T10:53:51;136.02;;;136.02;;
71174;SDS011;58876;51.994;4.472;2024-02-04T10:56:32;268.13;;;268.13;;
71174;SDS011;58876;51.994;4.472;2024-02-04T10:59:02;899.69;;;899.69;;
71174;SDS011;58876;51.994;4.472;2024-02-04T11:01:29;1784.62;;;1784.62;;
71174;SDS011;58876;51.994;4.472;2024-02-04T11:03:55;3369.67;;;3369.67;;
71174;SDS011;58876;51.994;4.472;2024-02-04T11:06:22;3917.52;;;3915.00;;
71174;SDS011;58876;51.994;4.472;2024-02-04T11:08:52;4109.83;;;4109.76;;
71174;SDS011;58876;51.994;4.472;2024-02-04T11:11:19;4015.65;;;4015.65;;
71174;SDS011;58876;51.994;4.472;2024-02-04T11:13:49;3693.57;;;3693.57;;
71174;SDS011;58876;51.994;4.472;2024-02-04T11:17:08;3792.00;;;3792.00;;
71174;SDS011;58876;51.994;4.472;2024-02-04T11:19:21;3595.39;;;3595.39;;
71174;SDS011;58876;51.994;4.472;2024-02-04T11:27:33;1813.31;;;1813.31;;
71174;SDS011;58876;51.994;4.472;2024-02-04T11:29:59;1879.10;;;1879.10;;
71174;SDS011;58876;51.994;4.472;2024-02-04T11:32:24;2508.20;;;2508.20;;
71174;SDS011;58876;51.994;4.472;2024-02-04T11:34:51;2475.25;;;2475.25;;
71174;SDS011;58876;51.994;4.472;2024-02-04T11:37:19;2384.36;;;2384.36;;
71174;SDS011;58876;51.994;4.472;2024-02-04T11:39:56;2212.78;;;2212.78;;
71174;SDS011;58876;51.994;4.472;2024-02-04T11:42:23;2211.69;;;2211.69;;
71174;SDS011;58876;51.994;4.472;2024-02-04T11:44:49;2129.61;;;2129.61;;
71174;SDS011;58876;51.994;4.472;2024-02-04T11:47:27;1851.51;;;1851.51;;
71174;SDS011;58876;51.994;4.472;2024-02-04T11:49:53;1768.69;;;1768.69;;
71174;SDS011;58876;51.994;4.472;2024-02-04T11:52:19;1840.68;;;1840.68;;
71174;SDS011;58876;51.994;4.472;2024-02-04T11:54:48;2001.74;;;2001.74;;
71174;SDS011;58876;51.994;4.472;2024-02-04T11:57:14;3206.21;;;3206.21;;
71174;SDS011;58876;51.994;4.472;2024-02-04T11:59:40;2987.85;;;2987.85;;
71174;SDS011;58876;51.994;4.472;2024-02-04T12:02:08;2400.54;;;2400.32;;
71174;SDS011;58876;51.994;4.472;2024-02-04T12:04:34;2766.51;;;2766.51;;
71174;SDS011;58876;51.994;4.472;2024-02-04T12:07:01;2997.04;;;2997.04;;
71174;SDS011;58876;51.994;4.472;2024-02-04T12:09:27;2850.64;;;2850.64;;
71174;SDS011;58876;51.994;4.472;2024-02-04T12:11:54;2650.86;;;2650.86;;
71174;SDS011;58876;51.994;4.472;2024-02-04T12:14:19;2213.28;;;2213.28;;
71174;SDS011;58876;51.994;4.472;2024-02-04T12:16:46;2331.95;;;2331.95;;
71174;SDS011;58876;51.994;4.472;2024-02-04T12:19:11;1980.71;;;1980.71;;
71174;SDS011;58876;51.994;4.472;2024-02-04T12:21:37;2610.75;;;2610.75;;
71174;SDS011;58876;51.994;4.472;2024-02-04T12:24:03;2918.96;;;2918.96;;
71174;SDS011;58876;51.994;4.472;2024-02-04T12:26:29;2581.28;;;2581.28;;
71174;SDS011;58876;51.994;4.472;2024-02-04T12:28:55;3187.17;;;3187.17;;
71174;SDS011;58876;51.994;4.472;2024-02-04T12:31:24;4478.79;;;4478.79;;
71174;SDS011;58876;51.994;4.472;2024-02-04T12:33:54;3210.06;;;3210.06;;
71174;SDS011;58876;51.994;4.472;2024-02-04T12:36:25;2703.35;;;2703.35;;
71174;SDS011;58876;51.994;4.472;2024-02-04T12:38:55;2492.87;;;2492.87;;
71174;SDS011;58876;51.994;4.472;2024-02-04T12:41:22;2333.03;;;2333.03;;
71174;SDS011;58876;51.994;4.472;2024-02-04T12:43:54;2211.99;;;2211.99;;
71174;SDS011;58876;51.994;4.472;2024-02-04T12:46:21;2680.53;;;2680.53;;
71174;SDS011;58876;51.994;4.472;2024-02-04T12:48:51;2462.30;;;2462.30;;
71174;SDS011;58876;51.994;4.472;2024-02-04T12:51:28;2405.62;;;2405.62;;
71174;SDS011;58876;51.994;4.472;2024-02-04T12:54:08;1394.21;;;1394.21;;
71174;SDS011;58876;51.994;4.472;2024-02-04T12:59:30;1618.30;;;1618.30;;
71174;SDS011;58876;51.994;4.472;2024-02-04T13:02:30;1081.64;;;1081.64;;
71174;SDS011;58876;51.994;4.472;2024-02-04T13:04:48;695.83;;;695.83;;
71174;SDS011;58876;51.994;4.472;2024-02-04T13:07:14;539.86;;;539.86;;
71174;SDS011;58876;51.994;4.472;2024-02-04T13:09:43;700.74;;;700.74;;
71174;SDS011;58876;51.994;4.472;2024-02-04T13:12:14;1375.48;;;1375.48;;
71174;SDS011;58876;51.994;4.472;2024-02-04T13:14:42;1330.12;;;1330.12;;
71174;SDS011;58876;51.994;4.472;2024-02-04T13:17:09;2194.26;;;2194.26;;
71174;SDS011;58876;51.994;4.472;2024-02-04T13:19:35;1082.00;;;1082.00;;
71174;SDS011;58876;51.994;4.472;2024-02-04T13:22:03;1602.08;;;1602.08;;
71174;SDS011;58876;51.994;4.472;2024-02-04T13:24:29;2339.35;;;2339.35;;
71174;SDS011;58876;51.994;4.472;2024-02-04T13:26:55;1745.55;;;1745.55;;
71174;SDS011;58876;51.994;4.472;2024-02-04T13:29:22;2920.25;;;2920.25;;
71174;SDS011;58876;51.994;4.472;2024-02-04T13:31:47;3363.33;;;3363.33;;
71174;SDS011;58876;51.994;4.472;2024-02-04T13:34:13;2873.95;;;2873.95;;
71174;SDS011;58876;51.994;4.472;2024-02-04T13:36:39;2850.07;;;2850.07;;
71174;SDS011;58876;51.994;4.472;2024-02-04T13:39:04;3047.48;;;3047.48;;
71174;SDS011;58876;51.994;4.472;2024-02-04T13:41:31;3021.44;;;3021.44;;
71174;SDS011;58876;51.994;4.472;2024-02-04T13:43:57;2987.23;;;2987.23;;
71174;SDS011;58876;51.994;4.472;2024-02-04T13:46:23;3086.37;;;3086.37;;
71174;SDS011;58876;51.994;4.472;2024-02-04T13:48:49;3037.89;;;3037.89;;
71174;SDS011;58876;51.994;4.472;2024-02-04T13:51:14;2715.67;;;2715.67;;
71174;SDS011;58876;51.994;4.472;2024-02-04T13:53:43;2198.46;;;2198.46;;